Time;durP1;ratioP1;P1;durP2;ratioP2;P2;SDS_P1;SDS_P2;PMS_P1;PMS_P2;Temp;Humidity;BMP_temperature;BMP_pressure;BME280_temperature;BME280_humidity;BME280_pressure;Samples;Min_cycle;Max_cycle;Signal;HPM_P1;HPM_P2
2023/04/21 00:00:55;;;;;;;3.00;2.70;;;4.00;99.90;;;;;;5094269;28;20465;-86
2023/04/21 00:03:22;;;;;;;3.13;2.38;;;4.00;99.90;;;;;;5075677;28;20539;-87
2023/04/21 00:05:49;;;;;;;2.38;2.17;;;4.00;99.90;;;;;;5075212;28;20393;-86
2023/04/21 00:08:15;;;;;;;2.60;2.40;;;4.00;99.90;;;;;;5075448;28;20534;-87
2023/04/21 00:10:41;;;;;;;2.80;2.60;;;4.00;99.90;;;;;;5075378;28;20392;-86
2023/04/21 00:13:07;;;;;;;3.13;2.72;;;3.80;99.90;;;;;;5075935;28;20390;-87
2023/04/21 00:15:33;;;;;;;2.90;2.50;;;3.80;99.90;;;;;;5105357;28;20393;-88
2023/04/21 00:17:58;;;;;;;2.80;2.60;;;3.90;99.90;;;;;;5091174;28;20412;-87
2023/04/21 00:20:27;;;;;;;2.50;2.10;;;3.90;99.90;;;;;;5074192;28;20775;-87
2023/04/21 00:22:54;;;;;;;2.70;2.50;;;3.70;99.90;;;;;;5075460;28;20432;-86
2023/04/21 00:25:20;;;;;;;2.67;2.47;;;3.70;99.90;;;;;;5075320;28;20408;-86
2023/04/21 00:27:45;;;;;;;2.63;2.10;;;3.70;99.90;;;;;;5093459;28;20382;-87
2023/04/21 00:30:11;;;;;;;3.08;2.10;;;3.70;99.90;;;;;;5076070;28;20378;-87
2023/04/21 00:32:37;;;;;;;2.60;2.40;;;3.60;99.90;;;;;;5076089;28;20417;-86
2023/04/21 00:35:03;;;;;;;2.25;2.05;;;3.60;99.90;;;;;;5093583;28;20856;-87
2023/04/21 00:37:29;;;;;;;2.50;2.30;;;3.50;99.90;;;;;;5084391;28;20369;-88
2023/04/21 00:39:54;;;;;;;2.50;2.30;;;3.60;99.90;;;;;;5078394;28;20730;-86
2023/04/21 00:42:20;;;;;;;3.73;2.53;;;3.50;99.90;;;;;;5076330;28;20389;-86
2023/04/21 00:44:45;;;;;;;2.23;2.00;;;3.60;99.90;;;;;;5075323;28;20950;-87
2023/04/21 00:47:11;;;;;;;2.90;2.30;;;3.60;99.90;;;;;;5093031;28;20374;-86
2023/04/21 00:49:36;;;;;;;2.60;2.40;;;3.60;99.90;;;;;;5077219;28;20382;-86
2023/04/21 00:52:04;;;;;;;3.63;2.33;;;3.50;99.90;;;;;;5075477;28;20381;-86
2023/04/21 00:54:31;;;;;;;2.97;2.67;;;3.50;99.90;;;;;;5093218;28;20382;-86
2023/04/21 00:56:59;;;;;;;2.50;2.30;;;3.60;99.90;;;;;;5074777;28;20524;-84
2023/04/21 00:59:24;;;;;;;2.63;2.42;;;3.50;99.90;;;;;;5093092;28;20390;-86
2023/04/21 01:01:51;;;;;;;2.50;2.30;;;3.50;99.90;;;;;;5092989;28;20376;-86
2023/04/21 01:04:17;;;;;;;2.67;2.13;;;3.50;99.90;;;;;;5093143;28;20488;-87
2023/04/21 01:06:42;;;;;;;2.80;2.20;;;3.50;99.90;;;;;;5074955;28;20428;-87
2023/04/21 01:09:08;;;;;;;2.42;2.20;;;3.50;99.90;;;;;;5075179;28;20393;-87
2023/04/21 01:11:34;;;;;;;2.50;2.30;;;3.20;99.90;;;;;;5074744;28;20391;-87
2023/04/21 01:13:59;;;;;;;2.67;2.47;;;3.30;99.90;;;;;;5074546;28;20378;-86
2023/04/21 01:16:25;;;;;;;3.13;2.42;;;3.40;99.90;;;;;;5074227;28;20536;-87
2023/04/21 01:18:52;;;;;;;2.90;2.60;;;3.30;99.90;;;;;;5092932;28;20382;-86
2023/04/21 01:21:18;;;;;;;3.15;2.85;;;3.20;99.90;;;;;;5074802;28;20443;-87
2023/04/21 01:23:44;;;;;;;2.90;2.60;;;3.20;99.90;;;;;;5092710;28;20404;-86
2023/04/21 01:26:10;;;;;;;3.20;2.95;;;3.10;99.90;;;;;;5074434;28;20390;-86
2023/04/21 01:28:36;;;;;;;3.00;2.80;;;3.30;99.90;;;;;;5074924;28;20439;-86
2023/04/21 01:31:02;;;;;;;3.67;3.30;;;3.30;99.90;;;;;;5073699;28;20386;-86
2023/04/21 01:33:28;;;;;;;2.70;2.45;;;3.30;99.90;;;;;;5073926;28;20390;-87
2023/04/21 01:35:54;;;;;;;4.00;3.03;;;3.20;99.90;;;;;;5092004;28;20390;-85
2023/04/21 01:38:20;;;;;;;5.22;2.70;;;3.10;99.90;;;;;;5076000;28;20457;-85
2023/04/21 01:40:51;;;;;;;3.00;2.70;;;3.20;99.90;;;;;;5104856;28;20390;-86
2023/04/21 01:43:19;;;;;;;2.83;2.60;;;3.20;99.90;;;;;;5097042;28;20458;-86
2023/04/21 01:45:45;;;;;;;2.90;2.70;;;3.10;99.90;;;;;;5074149;28;20535;-87
2023/04/21 01:48:11;;;;;;;3.30;3.00;;;3.10;99.90;;;;;;5074023;28;20375;-85
2023/04/21 01:50:36;;;;;;;3.30;3.00;;;2.90;99.90;;;;;;5092054;28;20375;-84
2023/04/21 01:53:02;;;;;;;3.60;3.30;;;3.00;99.90;;;;;;5092257;28;20851;-85
2023/04/21 01:55:28;;;;;;;3.30;2.80;;;3.00;99.90;;;;;;5091474;28;20386;-85
2023/04/21 01:57:56;;;;;;;3.20;2.90;;;2.90;99.90;;;;;;5068993;28;20426;-87
2023/04/21 02:00:22;;;;;;;2.80;2.60;;;2.90;99.90;;;;;;5071496;28;20400;-84
2023/04/21 02:02:47;;;;;;;3.30;3.00;;;2.80;99.90;;;;;;5053369;28;20979;-85
2023/04/21 02:05:13;;;;;;;3.33;3.03;;;2.80;99.90;;;;;;5053329;28;20415;-84
2023/04/21 02:07:38;;;;;;;3.13;2.83;;;2.70;99.90;;;;;;5070999;28;20585;-84
2023/04/21 02:10:04;;;;;;;3.60;3.30;;;2.70;99.90;;;;;;5053277;28;20449;-85
2023/04/21 02:12:30;;;;;;;3.30;3.10;;;2.70;99.90;;;;;;5053560;28;20394;-85
2023/04/21 02:14:55;;;;;;;3.73;3.10;;;2.60;99.90;;;;;;5071691;28;20446;-85
2023/04/21 02:17:21;;;;;;;3.40;3.10;;;2.60;99.90;;;;;;5087674;28;20395;-85
2023/04/21 02:19:47;;;;;;;3.27;2.97;;;2.60;99.90;;;;;;5092995;28;20888;-85
2023/04/21 02:22:12;;;;;;;3.30;3.00;;;2.60;99.90;;;;;;5054100;28;20399;-85
2023/04/21 02:24:38;;;;;;;4.87;3.20;;;2.50;99.90;;;;;;5053288;28;20467;-85
2023/04/21 02:27:04;;;;;;;3.20;3.00;;;2.50;99.90;;;;;;5071652;28;20858;-85
2023/04/21 02:29:29;;;;;;;3.70;3.00;;;2.60;99.90;;;;;;5053641;28;20904;-85
2023/04/21 02:31:55;;;;;;;2.80;2.60;;;2.60;99.90;;;;;;5053768;28;20380;-85
2023/04/21 02:34:21;;;;;;;3.47;2.60;;;2.50;99.90;;;;;;5071743;28;20392;-84
2023/04/21 02:36:46;;;;;;;3.30;3.00;;;2.50;99.90;;;;;;5053138;28;20449;-84
2023/04/21 02:39:12;;;;;;;3.40;3.10;;;2.60;99.90;;;;;;5071402;28;20434;-85
2023/04/21 02:41:38;;;;;;;2.67;2.47;;;2.70;99.90;;;;;;5067549;28;20387;-85
2023/04/21 02:44:04;;;;;;;3.50;3.20;;;2.70;99.90;;;;;;5057153;28;20407;-85
2023/04/21 02:46:29;;;;;;;3.25;2.95;;;2.70;99.90;;;;;;5057555;28;20380;-84
2023/04/21 02:48:55;;;;;;;3.13;2.93;;;2.70;99.90;;;;;;5057861;28;20958;-85
2023/04/21 02:51:21;;;;;;;2.90;2.60;;;2.50;99.90;;;;;;5075390;28;20459;-85
2023/04/21 02:53:46;;;;;;;3.00;2.80;;;2.60;99.90;;;;;;5056828;28;20547;-84
2023/04/21 02:56:12;;;;;;;3.20;2.90;;;2.60;99.90;;;;;;5056420;28;20395;-85
2023/04/21 02:58:37;;;;;;;2.60;2.40;;;2.80;99.90;;;;;;5084917;28;20438;-85
2023/04/21 03:01:03;;;;;;;3.10;2.80;;;2.60;99.90;;;;;;5076836;28;20386;-85
2023/04/21 03:03:30;;;;;;;2.97;2.67;;;2.50;99.90;;;;;;5076637;28;20462;-85
2023/04/21 03:05:57;;;;;;;3.30;3.00;;;2.40;99.90;;;;;;5094666;28;20374;-85
2023/04/21 03:08:23;;;;;;;3.05;2.75;;;2.50;99.90;;;;;;5076699;28;20378;-85
2023/04/21 03:10:48;;;;;;;3.20;3.00;;;2.60;99.90;;;;;;5076884;28;20370;-85
2023/04/21 03:13:14;;;;;;;3.50;3.20;;;2.50;99.90;;;;;;5094835;28;20543;-85
2023/04/21 03:15:39;;;;;;;3.28;3.08;;;2.50;99.90;;;;;;5094484;28;20388;-85
2023/04/21 03:18:05;;;;;;;5.03;3.85;;;2.50;99.90;;;;;;5076450;28;20400;-85
2023/04/21 03:20:30;;;;;;;3.20;2.90;;;2.50;99.90;;;;;;5076674;28;20886;-85
2023/04/21 03:22:56;;;;;;;2.92;2.63;;;2.40;99.90;;;;;;5094318;28;20389;-85
2023/04/21 03:25:22;;;;;;;3.35;3.05;;;2.50;99.90;;;;;;5076210;28;20374;-85
2023/04/21 03:27:48;;;;;;;3.50;3.20;;;2.30;99.90;;;;;;5076261;28;20469;-85
2023/04/21 03:30:13;;;;;;;3.30;3.00;;;2.30;99.90;;;;;;5076374;28;20392;-85
2023/04/21 03:32:39;;;;;;;3.80;3.50;;;2.30;99.90;;;;;;5076774;28;20420;-85
2023/04/21 03:35:05;;;;;;;4.43;2.80;;;2.50;99.90;;;;;;5076452;28;20378;-85
2023/04/21 03:37:30;;;;;;;3.63;3.27;;;2.50;99.90;;;;;;5076002;28;20410;-84
2023/04/21 03:39:56;;;;;;;3.40;3.10;;;2.70;99.90;;;;;;5094445;28;20389;-84
2023/04/21 03:42:21;;;;;;;3.33;3.13;;;2.60;99.90;;;;;;5076233;28;20389;-85
2023/04/21 03:44:47;;;;;;;3.50;3.20;;;2.50;99.90;;;;;;5093958;28;20385;-85
2023/04/21 03:47:12;;;;;;;3.70;3.30;;;2.40;99.90;;;;;;5075772;28;20489;-84
2023/04/21 03:49:38;;;;;;;3.90;3.53;;;2.30;99.90;;;;;;5076146;28;20388;-85
2023/04/21 03:52:04;;;;;;;3.10;2.90;;;2.40;99.90;;;;;;5076906;28;20382;-85
2023/04/21 03:54:29;;;;;;;3.30;3.00;;;2.30;99.90;;;;;;5075958;28;20481;-85
2023/04/21 03:56:55;;;;;;;3.70;3.40;;;2.20;99.90;;;;;;5076090;28;20386;-85
2023/04/21 03:59:20;;;;;;;3.95;3.50;;;2.10;99.90;;;;;;5076935;28;20426;-85
2023/04/21 04:01:46;;;;;;;4.03;3.55;;;2.20;99.90;;;;;;5070021;28;20474;-85
2023/04/21 04:04:11;;;;;;;3.70;3.40;;;2.20;99.90;;;;;;5067124;28;20407;-84
2023/04/21 04:06:37;;;;;;;5.45;3.45;;;2.10;99.90;;;;;;5071097;28;20790;-85
2023/04/21 04:09:03;;;;;;;3.40;3.10;;;2.10;99.90;;;;;;5075963;28;20414;-84
2023/04/21 04:11:29;;;;;;;3.63;3.33;;;2.00;99.90;;;;;;5079437;28;20481;-86
2023/04/21 04:13:55;;;;;;;3.80;3.20;;;1.90;99.90;;;;;;5076443;28;20868;-87
2023/04/21 04:16:20;;;;;;;3.72;3.42;;;2.00;99.90;;;;;;5101369;28;20389;-86
2023/04/21 04:18:46;;;;;;;3.60;3.30;;;2.00;99.90;;;;;;5088013;28;20390;-87
2023/04/21 04:21:11;;;;;;;4.07;3.67;;;1.90;99.90;;;;;;5079459;28;20405;-87
2023/04/21 04:23:37;;;;;;;4.07;3.67;;;2.00;99.90;;;;;;5077151;28;20768;-86
2023/04/21 04:26:04;;;;;;;3.60;3.28;;;2.10;99.90;;;;;;5077263;28;20382;-86
2023/04/21 04:28:30;;;;;;;4.13;3.38;;;2.00;99.90;;;;;;5075899;28;20382;-86
2023/04/21 04:30:56;;;;;;;3.77;3.47;;;2.00;99.90;;;;;;5093934;28;20399;-86
2023/04/21 04:33:21;;;;;;;3.90;3.60;;;2.10;99.90;;;;;;5076520;28;20477;-86
2023/04/21 04:35:47;;;;;;;3.30;3.00;;;2.20;99.90;;;;;;5075599;28;20382;-86
2023/04/21 04:38:16;;;;;;;3.67;3.30;;;2.10;99.90;;;;;;5094468;28;20386;-87
2023/04/21 04:40:41;;;;;;;3.40;3.10;;;2.10;99.90;;;;;;5076093;28;20397;-86
2023/04/21 04:43:09;;;;;;;3.70;3.40;;;2.20;99.90;;;;;;5076643;28;20410;-86
2023/04/21 04:45:35;;;;;;;3.40;3.10;;;2.20;99.90;;;;;;5092579;28;20542;-86
2023/04/21 04:48:00;;;;;;;3.40;3.10;;;2.20;99.90;;;;;;5094486;28;20386;-86
2023/04/21 04:50:26;;;;;;;3.60;3.30;;;2.10;99.90;;;;;;5076508;28;20745;-86
2023/04/21 04:52:51;;;;;;;3.60;3.30;;;2.20;99.90;;;;;;5075748;28;20899;-86
2023/04/21 04:55:17;;;;;;;4.25;3.85;;;2.20;99.90;;;;;;5077093;28;20397;-87
2023/04/21 04:57:43;;;;;;;3.58;3.03;;;2.30;99.90;;;;;;5076429;28;20409;-86
2023/04/21 05:00:10;;;;;;;4.38;3.65;;;2.30;99.90;;;;;;5097537;28;20378;-87
2023/04/21 05:02:36;;;;;;;3.50;3.20;;;2.40;99.90;;;;;;5082355;28;20422;-86
2023/04/21 05:05:03;;;;;;;3.25;3.00;;;2.30;99.90;;;;;;5076704;28;20378;-86
2023/04/21 05:07:29;;;;;;;3.50;3.20;;;2.40;99.90;;;;;;5075267;28;20447;-87
2023/04/21 05:09:54;;;;;;;4.20;3.80;;;2.30;99.90;;;;;;5074845;28;20899;-87
2023/04/21 05:12:20;;;;;;;3.63;3.23;;;2.30;99.90;;;;;;5078120;28;20390;-87
2023/04/21 05:14:45;;;;;;;4.43;3.70;;;2.30;99.90;;;;;;5112524;28;20376;-86
2023/04/21 05:17:11;;;;;;;3.10;2.90;;;2.50;99.90;;;;;;5079513;28;20473;-86
2023/04/21 05:19:36;;;;;;;4.05;3.60;;;2.30;99.90;;;;;;5075787;28;20450;-86
2023/04/21 05:22:05;;;;;;;5.22;3.30;;;2.50;99.90;;;;;;5106819;28;20384;-87
2023/04/21 05:24:31;;;;;;;3.72;3.40;;;2.50;99.90;;;;;;5081004;28;20415;-86
2023/04/21 05:26:57;;;;;;;3.63;3.33;;;2.50;99.90;;;;;;5080181;28;20750;-86
2023/04/21 05:29:22;;;;;;;3.45;2.95;;;2.60;99.90;;;;;;5080730;28;20380;-87
2023/04/21 05:31:48;;;;;;;3.90;3.60;;;2.60;99.90;;;;;;5077320;28;20383;-85
2023/04/21 05:34:13;;;;;;;3.70;3.30;;;2.70;99.90;;;;;;5067979;28;20387;-86
2023/04/21 05:36:42;;;;;;;4.40;3.90;;;2.80;99.90;;;;;;5069156;28;20378;-87
2023/04/21 05:39:08;;;;;;;4.00;3.70;;;2.80;99.90;;;;;;5072114;28;20931;-87
2023/04/21 05:41:34;;;;;;;3.67;3.38;;;2.80;99.90;;;;;;5068540;28;20465;-86
2023/04/21 05:43:59;;;;;;;3.58;3.28;;;2.90;99.90;;;;;;5093138;28;20896;-86
2023/04/21 05:46:25;;;;;;;3.83;3.53;;;2.90;99.90;;;;;;5064368;28;20399;-86
2023/04/21 05:48:50;;;;;;;5.07;3.80;;;3.00;99.90;;;;;;5055950;28;20394;-86
2023/04/21 05:51:16;;;;;;;3.93;3.53;;;3.00;99.90;;;;;;5073232;28;20529;-86
2023/04/21 05:53:43;;;;;;;3.03;2.80;;;3.10;99.90;;;;;;5054756;28;20474;-86
2023/04/21 05:56:09;;;;;;;3.70;3.40;;;3.10;99.90;;;;;;5072686;28;20438;-85
2023/04/21 05:58:35;;;;;;;3.53;2.90;;;3.10;99.90;;;;;;5064928;28;20394;-86
2023/04/21 06:01:01;;;;;;;3.13;2.83;;;3.20;99.90;;;;;;5082869;28;20398;-86
2023/04/21 06:03:26;;;;;;;3.93;2.87;;;3.40;99.90;;;;;;5095501;28;20402;-86
2023/04/21 06:05:53;;;;;;;3.20;2.90;;;3.50;99.90;;;;;;5075087;28;20940;-86
2023/04/21 06:08:19;;;;;;;3.10;2.80;;;3.60;99.90;;;;;;5075162;28;20435;-86
2023/04/21 06:10:45;;;;;;;3.60;2.90;;;3.70;99.90;;;;;;5074947;28;20386;-86
2023/04/21 06:13:10;;;;;;;3.42;2.95;;;3.80;99.90;;;;;;5073892;28;20390;-86
2023/04/21 06:15:36;;;;;;;3.70;3.30;;;3.80;99.90;;;;;;5091668;28;20447;-87
2023/04/21 06:18:01;;;;;;;3.30;2.80;;;4.00;99.90;;;;;;5073328;28;20386;-86
2023/04/21 06:20:27;;;;;;;2.80;2.60;;;4.20;99.90;;;;;;5074309;28;20906;-86
2023/04/21 06:22:53;;;;;;;3.83;3.30;;;4.30;99.90;;;;;;5091826;28;20393;-86
2023/04/21 06:25:18;;;;;;;4.70;3.40;;;4.50;99.90;;;;;;5073512;28;20457;-86
2023/04/21 06:27:44;;;;;;;2.47;2.27;;;4.80;99.90;;;;;;5073691;28;20756;-86
2023/04/21 06:30:10;;;;;;;3.10;2.80;;;5.10;99.90;;;;;;5091577;28;20472;-85
2023/04/21 06:32:36;;;;;;;2.60;2.40;;;5.30;99.90;;;;;;5074172;28;20759;-86
2023/04/21 06:35:01;;;;;;;3.05;2.83;;;5.40;99.90;;;;;;5073549;28;20389;-86
2023/04/21 06:37:27;;;;;;;3.28;2.97;;;5.60;99.90;;;;;;5091791;28;20507;-86
2023/04/21 06:39:53;;;;;;;2.90;2.70;;;5.90;99.90;;;;;;5073698;28;20440;-86
2023/04/21 06:42:18;;;;;;;3.50;3.20;;;6.10;99.90;;;;;;5091538;28;20384;-86
2023/04/21 06:44:44;;;;;;;3.08;2.83;;;6.00;99.90;;;;;;5074650;28;20385;-84
2023/04/21 06:47:09;;;;;;;3.72;3.33;;;5.80;99.90;;;;;;5074691;28;20385;-84
2023/04/21 06:49:36;;;;;;;3.60;3.30;;;5.90;99.90;;;;;;5074807;28;20379;-84
2023/04/21 06:52:02;;;;;;;4.10;3.70;;;6.10;99.90;;;;;;5074554;28;20459;-84
2023/04/21 06:54:28;;;;;;;4.50;3.53;;;6.00;99.90;;;;;;5076942;28;20387;-84
2023/04/21 06:56:53;;;;;;;4.78;3.67;;;6.00;99.90;;;;;;5079500;28;20384;-84
2023/04/21 06:59:19;;;;;;;4.30;4.00;;;6.00;99.90;;;;;;5075518;28;20380;-84
2023/04/21 07:01:44;;;;;;;3.83;3.50;;;6.10;99.90;;;;;;5096557;28;20464;-85
2023/04/21 07:04:10;;;;;;;4.20;3.90;;;6.00;99.90;;;;;;5077576;28;20404;-84
2023/04/21 07:06:35;;;;;;;4.00;3.50;;;6.20;99.90;;;;;;5070461;28;20461;-84
2023/04/21 07:09:01;;;;;;;3.90;3.50;;;6.30;99.90;;;;;;5097430;28;20457;-84
2023/04/21 07:11:27;;;;;;;4.20;3.47;;;6.30;99.90;;;;;;5077521;28;20409;-84
2023/04/21 07:13:53;;;;;;;3.30;3.00;;;6.20;99.90;;;;;;5078123;28;20396;-85
2023/04/21 07:16:19;;;;;;;3.70;3.40;;;6.30;99.90;;;;;;5074788;28;20414;-85
2023/04/21 07:18:44;;;;;;;3.85;3.20;;;6.40;99.90;;;;;;5077794;28;20381;-85
2023/04/21 07:21:10;;;;;;;3.77;3.47;;;6.70;99.90;;;;;;5094685;28;20868;-83
2023/04/21 07:23:36;;;;;;;4.37;3.87;;;6.80;99.90;;;;;;5078647;28;20401;-84
2023/04/21 07:26:01;;;;;;;5.40;4.10;;;6.90;99.90;;;;;;5077245;28;20382;-84
2023/04/21 07:28:27;;;;;;;4.43;4.03;;;6.90;99.90;;;;;;5097679;28;20378;-83
2023/04/21 07:30:52;;;;;;;5.25;4.75;;;7.10;99.90;;;;;;5082853;28;20390;-83
2023/04/21 07:33:18;;;;;;;4.85;4.20;;;7.20;99.90;;;;;;5079174;28;20380;-83
2023/04/21 07:35:43;;;;;;;5.60;4.40;;;7.30;99.90;;;;;;5099819;28;20409;-84
2023/04/21 07:38:09;;;;;;;5.10;4.60;;;7.20;99.90;;;;;;5083995;28;20374;-83
2023/04/21 07:40:34;;;;;;;5.87;4.83;;;7.20;99.90;;;;;;5100121;28;20449;-84
2023/04/21 07:43:00;;;;;;;5.40;4.90;;;7.20;99.90;;;;;;5082911;28;20402;-84
2023/04/21 07:45:25;;;;;;;6.25;5.65;;;7.20;99.90;;;;;;5083338;28;20810;-84
2023/04/21 07:47:51;;;;;;;6.70;6.00;;;7.20;99.90;;;;;;5090844;28;20809;-84
2023/04/21 07:50:17;;;;;;;5.50;5.00;;;7.30;99.90;;;;;;5089737;28;20433;-84
2023/04/21 07:52:42;;;;;;;6.73;6.03;;;7.30;99.90;;;;;;5086298;28;20412;-84
2023/04/21 07:55:08;;;;;;;6.93;6.33;;;7.20;99.90;;;;;;5103495;28;20463;-84
2023/04/21 07:57:37;;;;;;;6.77;5.97;;;7.40;99.90;;;;;;5102406;28;20386;-84
2023/04/21 08:00:03;;;;;;;7.10;6.40;;;7.10;99.90;;;;;;5085471;28;20397;-84
2023/04/21 08:02:29;;;;;;;6.20;5.60;;;7.30;99.90;;;;;;5084683;28;20733;-84
2023/04/21 08:04:54;;;;;;;6.60;6.00;;;7.40;99.90;;;;;;5102845;28;20376;-84
2023/04/21 08:07:20;;;;;;;6.80;6.20;;;7.50;99.90;;;;;;5102543;28;20390;-84
2023/04/21 08:09:45;;;;;;;7.23;6.30;;;7.60;99.90;;;;;;5112358;28;20381;-84
2023/04/21 08:12:11;;;;;;;7.43;6.72;;;7.80;99.90;;;;;;5099769;28;20392;-84
2023/04/21 08:14:36;;;;;;;7.18;6.47;;;7.80;99.90;;;;;;5095293;28;20397;-84
2023/04/21 08:17:02;;;;;;;6.97;6.27;;;7.90;99.90;;;;;;5086010;28;20382;-84
2023/04/21 08:19:28;;;;;;;7.70;6.90;;;8.00;99.90;;;;;;5083983;28;20370;-84
2023/04/21 08:21:53;;;;;;;8.07;7.27;;;8.10;99.90;;;;;;5099757;28;20378;-83
2023/04/21 08:24:19;;;;;;;8.30;7.50;;;8.10;99.90;;;;;;5099282;28;20412;-84
2023/04/21 08:26:45;;;;;;;7.70;7.00;;;8.10;99.90;;;;;;5081255;28;20377;-84
2023/04/21 08:29:12;;;;;;;7.30;6.60;;;8.10;99.90;;;;;;5083184;28;20478;-84
2023/04/21 08:31:37;;;;;;;6.85;6.22;;;8.20;99.90;;;;;;5102574;28;20377;-84
2023/04/21 08:34:03;;;;;;;7.83;6.90;;;8.40;99.90;;;;;;5101421;28;20733;-84
2023/04/21 08:36:28;;;;;;;7.43;6.70;;;8.50;99.90;;;;;;5082737;28;21006;-84
2023/04/21 08:38:54;;;;;;;7.40;6.70;;;9.00;99.90;;;;;;5106200;28;20406;-84
2023/04/21 08:41:21;;;;;;;7.50;6.65;;;8.80;99.90;;;;;;5074253;28;20468;-84
2023/04/21 08:43:46;;;;;;;7.60;6.90;;;8.70;99.90;;;;;;5093242;28;20408;-84
2023/04/21 08:46:13;;;;;;;7.63;6.93;;;8.70;99.90;;;;;;5093633;28;20390;-84
2023/04/21 08:48:39;;;;;;;7.87;7.07;;;8.90;99.90;;;;;;5076181;28;20386;-84
2023/04/21 08:51:10;;;;;;;7.00;6.30;;;8.80;99.90;;;;;;5099445;28;20381;-84
2023/04/21 08:53:36;;;;;;;6.57;5.97;;;8.80;99.90;;;;;;5080865;28;20388;-84
2023/04/21 08:56:03;;;;;;;7.47;6.65;;;8.90;99.90;;;;;;5100533;28;20495;-84
2023/04/21 08:58:28;;;;;;;6.90;6.30;;;9.20;99.90;;;;;;5100404;28;20385;-84
2023/04/21 09:00:54;;;;;;;6.75;6.15;;;9.30;99.90;;;;;;5099999;28;20387;-84
2023/04/21 09:03:24;;;;;;;7.10;6.40;;;9.30;99.90;;;;;;5081841;28;20930;-84
2023/04/21 09:06:19;;;;;;;6.20;5.60;;;9.40;99.90;;;;;;5081731;28;20393;-84
2023/04/21 09:08:54;;;;;;;6.80;6.15;;;9.40;99.90;;;;;;5064961;28;20382;-84
2023/04/21 09:11:20;;;;;;;5.20;4.80;;;9.50;99.90;;;;;;5101174;28;20381;-84
2023/04/21 09:13:46;;;;;;;6.00;5.40;;;9.60;98.60;;;;;;5082197;28;20382;-84
2023/04/21 09:16:19;;;;;;;6.60;5.00;;;9.90;98.70;;;;;;5081839;28;21148;-85
2023/04/21 09:18:45;;;;;;;6.00;5.40;;;10.10;92.50;;;;;;5082636;28;20386;-85
2023/04/21 09:21:14;;;;;;;6.30;5.70;;;10.10;90.30;;;;;;5081968;28;20393;-85
2023/04/21 09:23:51;;;;;;;5.78;5.18;;;10.00;91.70;;;;;;5081708;28;20421;-82
2023/04/21 09:26:18;;;;;;;5.57;5.07;;;10.10;90.70;;;;;;5081888;28;20625;-83
2023/04/21 09:28:45;;;;;;;9.13;5.20;;;10.00;85.90;;;;;;5082371;28;20380;-82
2023/04/21 09:31:20;;;;;;;6.95;5.00;;;10.00;86.50;;;;;;5083105;28;20457;-85
2023/04/21 09:33:53;;;;;;;5.40;4.90;;;10.00;89.70;;;;;;5082721;28;20374;-85
2023/04/21 09:36:25;;;;;;;6.38;5.30;;;10.40;94.00;;;;;;5101087;28;20374;-83
2023/04/21 09:38:53;;;;;;;6.18;5.50;;;10.40;89.90;;;;;;5081592;28;20393;-82
2023/04/21 09:41:20;;;;;;;5.90;5.20;;;10.40;79.90;;;;;;5100361;28;20378;-85
2023/04/21 09:43:46;;;;;;;6.65;5.45;;;10.60;79.10;;;;;;5081137;28;20394;-83
2023/04/21 09:46:13;;;;;;;6.60;5.90;;;10.30;77.10;;;;;;5100143;28;20409;-83
2023/04/21 09:48:43;;;;;;;5.40;4.90;;;10.40;71.70;;;;;;5101265;28;20417;-83
2023/04/21 09:51:11;;;;;;;6.22;5.63;;;10.50;79.80;;;;;;5099778;28;20370;-83
2023/04/21 09:53:39;;;;;;;8.70;7.30;;;10.70;84.70;;;;;;5081851;28;20382;-83
2023/04/21 09:56:12;;;;;;;7.90;7.20;;;10.90;89.90;;;;;;5099527;28;20384;-83
2023/04/21 09:58:59;;;;;;;8.90;8.10;;;10.90;85.60;;;;;;5081527;28;20404;-82
2023/04/21 10:01:28;;;;;;;8.32;7.60;;;11.00;90.20;;;;;;5083250;28;20474;-83
2023/04/21 10:03:54;;;;;;;8.70;7.80;;;11.10;84.10;;;;;;5083569;28;20398;-83
2023/04/21 10:06:20;;;;;;;9.27;8.38;;;11.20;83.60;;;;;;5099278;28;20374;-83
2023/04/21 10:09:08;;;;;;;8.80;7.90;;;11.00;86.90;;;;;;5101543;28;20483;-85
2023/04/21 10:11:35;;;;;;;9.15;8.25;;;11.00;78.10;;;;;;5082777;28;20408;-83
2023/04/21 10:14:02;;;;;;;8.38;7.63;;;10.90;84.90;;;;;;5101966;28;20895;-84
2023/04/21 10:16:27;;;;;;;8.82;7.93;;;11.20;78.20;;;;;;5100314;28;20386;-84
2023/04/21 10:18:53;;;;;;;8.20;7.40;;;11.30;78.10;;;;;;5100935;28;20390;-83
2023/04/21 10:21:20;;;;;;;8.50;7.70;;;11.40;73.20;;;;;;5092371;28;20382;-83
2023/04/21 10:23:52;;;;;;;9.10;7.53;;;11.50;72.50;;;;;;5091309;28;20403;-83
2023/04/21 10:26:27;;;;;;;8.18;7.38;;;11.60;69.40;;;;;;5088753;28;20391;-83
2023/04/21 10:28:56;;;;;;;7.60;6.90;;;11.80;60.10;;;;;;5087445;28;20909;-82
2023/04/21 10:31:25;;;;;;;8.60;7.80;;;11.70;59.30;;;;;;5081294;28;20383;-83
2023/04/21 10:36:55;;;;;;;8.82;7.97;;;12.10;55.80;;;;;;5079642;28;20387;-82
2023/04/21 10:39:37;;;;;;;8.00;7.30;;;12.30;62.60;;;;;;5074641;28;20384;-83
2023/04/21 10:42:14;;;;;;;9.60;8.65;;;12.40;57.50;;;;;;5077110;28;20395;-83
2023/04/21 10:44:43;;;;;;;8.55;7.75;;;12.60;53.40;;;;;;5078190;28;20414;-83
2023/04/21 10:47:10;;;;;;;9.48;8.35;;;12.30;50.40;;;;;;5077800;28;20842;-84
2023/04/21 10:49:39;;;;;;;9.10;8.20;;;12.70;52.40;;;;;;5077518;28;20481;-83
2023/04/21 10:52:08;;;;;;;8.75;7.93;;;12.80;47.10;;;;;;5076743;28;20406;-83
2023/04/21 10:54:45;;;;;;;9.60;8.53;;;12.80;50.70;;;;;;5076487;28;20396;-84
2023/04/21 10:57:13;;;;;;;9.30;8.40;;;13.00;46.80;;;;;;5073632;28;20419;-84
2023/04/21 10:59:40;;;;;;;8.93;8.07;;;13.60;41.80;;;;;;5076989;28;20394;-84
2023/04/21 11:02:07;;;;;;;9.70;8.80;;;13.80;35.60;;;;;;5096512;28;20389;-83
2023/04/21 11:04:33;;;;;;;9.43;8.52;;;13.70;39.40;;;;;;5097581;28;20402;-83
2023/04/21 11:07:06;;;;;;;9.90;8.90;;;14.20;36.10;;;;;;5089598;28;20401;-83
2023/04/21 11:09:32;;;;;;;10.30;9.30;;;14.40;32.50;;;;;;5094158;28;20955;-84
2023/04/21 11:12:01;;;;;;;10.27;9.27;;;14.00;32.60;;;;;;5098578;28;20409;-84
2023/04/21 11:14:27;;;;;;;9.65;8.80;;;13.80;34.50;;;;;;5108032;28;20460;-84
2023/04/21 11:16:53;;;;;;;9.90;9.00;;;13.50;36.80;;;;;;5101664;28;20381;-84
2023/04/21 11:19:23;;;;;;;9.80;8.90;;;13.90;35.40;;;;;;5079681;28;20898;-84
2023/04/21 11:21:48;;;;;;;9.30;8.50;;;14.20;32.70;;;;;;5096816;28;20378;-84
2023/04/21 11:24:14;;;;;;;9.90;9.00;;;14.90;30.00;;;;;;5097802;28;20481;-84
2023/04/21 11:26:41;;;;;;;10.00;9.10;;;14.60;30.00;;;;;;5097309;28;20856;-84
2023/04/21 11:29:08;;;;;;;10.00;9.10;;;14.60;27.60;;;;;;5077752;28;20813;-84
2023/04/21 11:31:35;;;;;;;9.38;8.48;;;14.20;29.30;;;;;;5111814;28;20385;-84
2023/04/21 11:34:04;;;;;;;9.82;8.93;;;15.30;30.10;;;;;;5101566;28;20415;-84
2023/04/21 11:36:35;;;;;;;8.60;7.90;;;16.40;21.40;;;;;;5074503;28;20881;-84
2023/04/21 11:39:12;;;;;;;8.55;7.85;;;17.70;13.30;;;;;;5075403;28;20469;-84
2023/04/21 11:41:42;;;;;;;9.37;8.57;;;17.10;9.40;;;;;;5073282;28;20508;-84
2023/04/21 11:44:09;;;;;;;9.70;8.90;;;18.20;8.70;;;;;;5077458;28;20406;-84
2023/04/21 11:46:36;;;;;;;9.50;8.60;;;17.70;8.30;;;;;;5094423;28;20396;-84
2023/04/21 11:49:11;;;;;;;8.63;7.88;;;17.00;8.80;;;;;;5077218;28;20385;-85
2023/04/21 11:51:37;;;;;;;9.43;8.48;;;16.70;11.30;;;;;;5072652;28;20422;-84
2023/04/21 11:54:11;;;;;;;8.90;8.10;;;17.20;8.70;;;;;;5072602;28;20378;-85
2023/04/21 11:56:38;;;;;;;8.52;7.82;;;17.50;5.70;;;;;;5072865;28;20392;-85
2023/04/21 11:59:08;;;;;;;8.20;7.50;;;18.10;5.20;;;;;;5075670;28;20768;-84
2023/04/21 12:01:34;;;;;;;8.88;8.18;;;16.80;7.40;;;;;;5069142;28;20394;-84
2023/04/21 12:04:02;;;;;;;9.47;8.67;;;16.60;8.70;;;;;;5093356;28;20474;-85
2023/04/21 12:06:28;;;;;;;8.45;7.75;;;16.20;10.40;;;;;;5093582;28;20502;-84
2023/04/21 12:08:56;;;;;;;8.38;7.68;;;16.00;9.60;;;;;;5076141;28;20413;-84
2023/04/21 12:11:23;;;;;;;9.07;8.27;;;16.00;9.50;;;;;;5072079;28;20380;-84
2023/04/21 12:13:49;;;;;;;8.57;7.78;;;16.10;12.20;;;;;;5077229;28;20878;-85
2023/04/21 12:16:14;;;;;;;8.57;7.88;;;15.80;12.10;;;;;;5070909;28;20383;-84
2023/04/21 12:18:41;;;;;;;9.63;8.50;;;15.90;11.60;;;;;;5073079;28;20932;-84
2023/04/21 12:21:07;;;;;;;8.80;8.00;;;16.10;10.30;;;;;;5073596;28;20415;-85
2023/04/21 12:23:32;;;;;;;8.45;7.75;;;15.70;12.10;;;;;;5073705;28;20485;-84
2023/04/21 12:25:58;;;;;;;8.50;7.70;;;15.50;13.00;;;;;;5074565;28;20391;-84
2023/04/21 12:28:24;;;;;;;7.80;7.10;;;15.60;15.20;;;;;;5075072;28;20408;-85
2023/04/21 12:30:50;;;;;;;8.07;7.28;;;15.20;13.80;;;;;;5074478;28;20774;-85
2023/04/21 12:33:16;;;;;;;8.00;7.30;;;15.30;13.70;;;;;;5074932;28;20437;-84
2023/04/21 12:35:42;;;;;;;7.77;7.07;;;14.90;13.90;;;;;;5076020;28;20376;-84
2023/04/21 12:38:08;;;;;;;7.72;7.03;;;14.50;14.20;;;;;;5078470;28;20459;-84
2023/04/21 12:40:34;;;;;;;11.80;6.43;;;14.50;15.60;;;;;;5083556;28;20796;-84
2023/04/21 12:42:59;;;;;;;7.17;6.47;;;14.50;16.80;;;;;;5096290;28;20809;-82
2023/04/21 12:45:25;;;;;;;8.27;6.90;;;14.40;16.20;;;;;;5080003;28;20409;-83
2023/04/21 12:47:50;;;;;;;7.30;6.60;;;14.40;16.40;;;;;;5085228;28;20760;-83
2023/04/21 12:50:16;;;;;;;7.60;6.40;;;14.30;17.10;;;;;;5102945;28;20462;-83
2023/04/21 12:52:41;;;;;;;7.20;6.50;;;14.50;16.60;;;;;;5095953;28;20394;-82
2023/04/21 12:55:07;;;;;;;6.90;6.30;;;14.60;17.20;;;;;;5077967;28;20391;-82